sensor_id;sensor_type;location;lat;lon;timestamp;pressure;altitude;pressure_sealevel;temperature;humidity
57606;BME280;43430;48.204;11.556;2023-02-23T00:00:26;95619.31;;;6.51;100.00
57606;BME280;43430;48.204;11.556;2023-02-23T00:02:58;95615.88;;;6.51;100.00
57606;BME280;43430;48.204;11.556;2023-02-23T00:05:30;95607.19;;;6.50;100.00
57606;BME280;43430;48.204;11.556;2023-02-23T00:07:56;95617.28;;;6.47;100.00
57606;BME280;43430;48.204;11.556;2023-02-23T00:10:22;95611.84;;;6.48;100.00
57606;BME280;43430;48.204;11.556;2023-02-23T00:12:57;95609.84;;;6.44;100.00
57606;BME280;43430;48.204;11.556;2023-02-23T00:15:24;95607.81;;;6.46;100.00
57606;BME280;43430;48.204;11.556;2023-02-23T00:17:52;95614.06;;;6.51;100.00
57606;BME280;43430;48.204;11.556;2023-02-23T00:20:18;95618.91;;;6.54;100.00
57606;BME280;43430;48.204;11.556;2023-02-23T00:22:52;95615.88;;;6.51;100.00
57606;BME280;43430;48.204;11.556;2023-02-23T00:25:18;95618.50;;;6.51;100.00
57606;BME280;43430;48.204;11.556;2023-02-23T00:27:43;95623.94;;;6.49;100.00
57606;BME280;43430;48.204;11.556;2023-02-23T00:30:14;95617.72;;;6.44;100.00
57606;BME280;43430;48.204;11.556;2023-02-23T00:32:40;95623.75;;;6.44;100.00
57606;BME280;43430;48.204;11.556;2023-02-23T00:35:06;95622.34;;;6.35;100.00
57606;BME280;43430;48.204;11.556;2023-02-23T00:37:47;95619.31;;;6.38;100.00
57606;BME280;43430;48.204;11.556;2023-02-23T00:40:14;95621.16;;;6.37;100.00
57606;BME280;43430;48.204;11.556;2023-02-23T00:42:42;95621.94;;;6.38;100.00
57606;BME280;43430;48.204;11.556;2023-02-23T00:45:08;95630.38;;;6.40;100.00
57606;BME280;43430;48.204;11.556;2023-02-23T00:47:39;95627.16;;;6.45;100.00
57606;BME280;43430;48.204;11.556;2023-02-23T00:50:07;95630.81;;;6.44;100.00
57606;BME280;43430;48.204;11.556;2023-02-23T00:52:35;95627.97;;;6.45;100.00
57606;BME280;43430;48.204;11.556;2023-02-23T00:55:01;95627.75;;;6.47;100.00
57606;BME280;43430;48.204;11.556;2023-02-23T00:57:26;95630.41;;;6.33;100.00
57606;BME280;43430;48.204;11.556;2023-02-23T00:59:51;95632.63;;;6.30;100.00
57606;BME280;43430;48.204;11.556;2023-02-23T01:02:17;95626.56;;;6.36;100.00
57606;BME280;43430;48.204;11.556;2023-02-23T01:04:42;95623.53;;;6.39;100.00
57606;BME280;43430;48.204;11.556;2023-02-23T01:07:08;95630.00;;;6.36;100.00
57606;BME280;43430;48.204;11.556;2023-02-23T01:09:37;95630.00;;;6.36;100.00
57606;BME280;43430;48.204;11.556;2023-02-23T01:12:02;95621.53;;;6.41;100.00
57606;BME280;43430;48.204;11.556;2023-02-23T01:14:32;95627.97;;;6.38;100.00
57606;BME280;43430;48.204;11.556;2023-02-23T01:16:57;95632.03;;;6.34;100.00
57606;BME280;43430;48.204;11.556;2023-02-23T01:19:23;95633.44;;;6.30;100.00
57606;BME280;43430;48.204;11.556;2023-02-23T01:21:48;95623.94;;;6.36;100.00
57606;BME280;43430;48.204;11.556;2023-02-23T01:24:14;95632.03;;;6.28;100.00
57606;BME280;43430;48.204;11.556;2023-02-23T01:26:41;95626.19;;;6.26;100.00
57606;BME280;43430;48.204;11.556;2023-02-23T01:29:13;95623.78;;;6.31;100.00
57606;BME280;43430;48.204;11.556;2023-02-23T01:31:41;95630.41;;;6.33;100.00
57606;BME280;43430;48.204;11.556;2023-02-23T01:34:09;95627.19;;;6.25;100.00
57606;BME280;43430;48.204;11.556;2023-02-23T01:36:37;95632.44;;;6.25;100.00
57606;BME280;43430;48.204;11.556;2023-02-23T01:39:09;95625.78;;;6.29;100.00
57606;BME280;43430;48.204;11.556;2023-02-23T01:41:36;95620.94;;;6.26;100.00
57606;BME280;43430;48.204;11.556;2023-02-23T01:44:03;95629.59;;;6.26;100.00
57606;BME280;43430;48.204;11.556;2023-02-23T01:46:42;95624.97;;;6.35;100.00
57606;BME280;43430;48.204;11.556;2023-02-23T01:49:13;95625.56;;;6.37;100.00
57606;BME280;43430;48.204;11.556;2023-02-23T01:51:43;95623.75;;;6.37;100.00
57606;BME280;43430;48.204;11.556;2023-02-23T01:54:15;95626.56;;;6.42;100.00
57606;BME280;43430;48.204;11.556;2023-02-23T01:56:47;95635.44;;;6.48;100.00
57606;BME280;43430;48.204;11.556;2023-02-23T01:59:23;95630.38;;;6.40;100.00
57606;BME280;43430;48.204;11.556;2023-02-23T02:01:53;95624.34;;;6.33;100.00
57606;BME280;43430;48.204;11.556;2023-02-23T02:04:20;95622.53;;;6.40;100.00
57606;BME280;43430;48.204;11.556;2023-02-23T02:06:48;95621.13;;;6.44;100.00
57606;BME280;43430;48.204;11.556;2023-02-23T02:09:18;95623.75;;;6.44;100.00
57606;BME280;43430;48.204;11.556;2023-02-23T02:11:45;95617.50;;;6.45;100.00
57606;BME280;43430;48.204;11.556;2023-02-23T02:14:21;95621.94;;;6.45;100.00
57606;BME280;43430;48.204;11.556;2023-02-23T02:28:18;95607.81;;;6.46;100.00
57606;BME280;43430;48.204;11.556;2023-02-23T02:44:09;95593.53;;;6.35;100.00
57606;BME280;43430;48.204;11.556;2023-02-23T02:46:39;95593.53;;;6.35;100.00
57606;BME280;43430;48.204;11.556;2023-02-23T02:49:34;95596.56;;;6.32;100.00
57606;BME280;43430;48.204;11.556;2023-02-23T02:52:23;95588.13;;;6.30;100.00
57606;BME280;43430;48.204;11.556;2023-02-23T02:54:52;95605.84;;;6.34;100.00
57606;BME280;43430;48.204;11.556;2023-02-23T02:57:24;95601.41;;;6.35;100.00
57606;BME280;43430;48.204;11.556;2023-02-23T02:59:50;95603.41;;;6.33;100.00
57606;BME280;43430;48.204;11.556;2023-02-23T03:02:37;95608.06;;;6.31;100.00
57606;BME280;43430;48.204;11.556;2023-02-23T03:05:51;95607.66;;;6.27;100.00
57606;BME280;43430;48.204;11.556;2023-02-23T03:11:31;95605.06;;;6.21;100.00
57606;BME280;43430;48.204;11.556;2023-02-23T03:14:38;95603.84;;;6.16;100.00
57606;BME280;43430;48.204;11.556;2023-02-23T03:17:46;95612.69;;;6.15;100.00
57606;BME280;43430;48.204;11.556;2023-02-23T03:20:36;95618.75;;;6.16;100.00
57606;BME280;43430;48.204;11.556;2023-02-23T03:26:37;95619.56;;;6.03;100.00
57606;BME280;43430;48.204;11.556;2023-02-23T03:29:31;95621.16;;;5.98;100.00
57606;BME280;43430;48.204;11.556;2023-02-23T03:32:36;95613.66;;;5.88;100.00
57606;BME280;43430;48.204;11.556;2023-02-23T03:35:49;95626.56;;;5.76;100.00
57606;BME280;43430;48.204;11.556;2023-02-23T03:38:52;95623.31;;;5.67;100.00
57606;BME280;43430;48.204;11.556;2023-02-23T03:41:42;95620.91;;;5.72;100.00
57606;BME280;43430;48.204;11.556;2023-02-23T03:44:33;95619.50;;;5.70;100.00
57606;BME280;43430;48.204;11.556;2023-02-23T03:47:22;95615.88;;;5.64;100.00
57606;BME280;43430;48.204;11.556;2023-02-23T03:50:14;95620.69;;;5.61;100.00
57606;BME280;43430;48.204;11.556;2023-02-23T03:53:01;95638.41;;;5.59;100.00
57606;BME280;43430;48.204;11.556;2023-02-23T03:55:51;95637.38;;;5.53;100.00
57606;BME280;43430;48.204;11.556;2023-02-23T03:58:40;95636.16;;;5.42;100.00
57606;BME280;43430;48.204;11.556;2023-02-23T04:01:29;95633.53;;;5.42;100.00
57606;BME280;43430;48.204;11.556;2023-02-23T04:04:14;95636.09;;;5.29;100.00
57606;BME280;43430;48.204;11.556;2023-02-23T04:07:00;95636.50;;;5.26;100.00
57606;BME280;43430;48.204;11.556;2023-02-23T04:09:45;95644.75;;;5.23;100.00
57606;BME280;43430;48.204;11.556;2023-02-23T04:12:33;95648.75;;;5.19;100.00
57606;BME280;43430;48.204;11.556;2023-02-23T04:15:31;95642.66;;;5.05;100.00
57606;BME280;43430;48.204;11.556;2023-02-23T04:17:57;95650.22;;;4.87;100.00
57606;BME280;43430;48.204;11.556;2023-02-23T04:20:23;95648.03;;;4.90;100.00
57606;BME280;43430;48.204;11.556;2023-02-23T04:22:50;95645.63;;;4.95;100.00
57606;BME280;43430;48.204;11.556;2023-02-23T04:25:16;95648.06;;;4.97;100.00
57606;BME280;43430;48.204;11.556;2023-02-23T04:27:42;95651.44;;;4.91;100.00
57606;BME280;43430;48.204;11.556;2023-02-23T04:30:08;95656.50;;;4.92;100.00
57606;BME280;43430;48.204;11.556;2023-02-23T04:32:35;95651.44;;;4.91;100.00
57606;BME280;43430;48.204;11.556;2023-02-23T04:35:01;95650.44;;;4.92;100.00
57606;BME280;43430;48.204;11.556;2023-02-23T04:37:26;95658.69;;;4.89;100.00
57606;BME280;43430;48.204;11.556;2023-02-23T04:39:52;95652.22;;;4.85;100.00
57606;BME280;43430;48.204;11.556;2023-02-23T04:42:17;95649.00;;;4.83;100.00
57606;BME280;43430;48.204;11.556;2023-02-23T04:44:43;95658.78;;;4.74;100.00
57606;BME280;43430;48.204;11.556;2023-02-23T04:47:09;95650.16;;;4.73;100.00
57606;BME280;43430;48.204;11.556;2023-02-23T04:49:34;95655.81;;;4.77;100.00
57606;BME280;43430;48.204;11.556;2023-02-23T04:52:00;95654.19;;;4.76;100.00
57606;BME280;43430;48.204;11.556;2023-02-23T04:54:25;95651.75;;;4.74;100.00
57606;BME280;43430;48.204;11.556;2023-02-23T04:56:51;95659.19;;;4.71;100.00
57606;BME280;43430;48.204;11.556;2023-02-23T04:59:17;95660.78;;;4.65;100.00
57606;BME280;43430;48.204;11.556;2023-02-23T05:01:42;95662.16;;;4.61;100.00
57606;BME280;43430;48.204;11.556;2023-02-23T05:04:08;95665.75;;;4.60;100.00
57606;BME280;43430;48.204;11.556;2023-02-23T05:06:33;95667.75;;;4.58;100.00
57606;BME280;43430;48.204;11.556;2023-02-23T05:08:58;95667.13;;;4.56;100.00
57606;BME280;43430;48.204;11.556;2023-02-23T05:11:24;95664.09;;;4.52;100.00
57606;BME280;43430;48.204;11.556;2023-02-23T05:13:50;95677.09;;;4.46;100.00
57606;BME280;43430;48.204;11.556;2023-02-23T05:16:16;95676.47;;;4.44;100.00
57606;BME280;43430;48.204;11.556;2023-02-23T05:18:42;95669.84;;;4.41;100.00
57606;BME280;43430;48.204;11.556;2023-02-23T05:21:07;95665.44;;;4.42;100.00
57606;BME280;43430;48.204;11.556;2023-02-23T05:23:34;95667.81;;;4.37;100.00
57606;BME280;43430;48.204;11.556;2023-02-23T05:26:01;95662.97;;;4.34;100.00
57606;BME280;43430;48.204;11.556;2023-02-23T05:28:28;95671.78;;;4.33;100.00
57606;BME280;43430;48.204;11.556;2023-02-23T05:30:54;95666.94;;;4.29;100.00
57606;BME280;43430;48.204;11.556;2023-02-23T05:33:19;95671.78;;;4.33;100.00
57606;BME280;43430;48.204;11.556;2023-02-23T05:35:46;95670.94;;;4.25;100.00
57606;BME280;43430;48.204;11.556;2023-02-23T05:38:12;95675.16;;;4.26;100.00
57606;BME280;43430;48.204;11.556;2023-02-23T05:40:37;95676.41;;;4.31;100.00
57606;BME280;43430;48.204;11.556;2023-02-23T05:43:04;95675.97;;;4.27;100.00
57606;BME280;43430;48.204;11.556;2023-02-23T05:45:29;95674.78;;;4.29;100.00
57606;BME280;43430;48.204;11.556;2023-02-23T05:47:54;95675.19;;;4.33;100.00
57606;BME280;43430;48.204;11.556;2023-02-23T05:50:20;95678.88;;;4.39;100.00
57606;BME280;43430;48.204;11.556;2023-02-23T05:52:45;95685.69;;;4.40;100.00
57606;BME280;43430;48.204;11.556;2023-02-23T05:55:11;95686.91;;;4.44;100.00
57606;BME280;43430;48.204;11.556;2023-02-23T05:57:37;95681.94;;;4.49;100.00
57606;BME280;43430;48.204;11.556;2023-02-23T06:00:04;95687.81;;;4.51;100.00
57606;BME280;43430;48.204;11.556;2023-02-23T06:02:31;95681.38;;;4.53;100.00
57606;BME280;43430;48.204;11.556;2023-02-23T06:04:56;95682.38;;;4.52;100.00
57606;BME280;43430;48.204;11.556;2023-02-23T06:07:21;95684.28;;;4.65;100.00
57606;BME280;43430;48.204;11.556;2023-02-23T06:09:47;95687.72;;;4.72;100.00
57606;BME280;43430;48.204;11.556;2023-02-23T06:12:12;95687.94;;;4.78;100.00
57606;BME280;43430;48.204;11.556;2023-02-23T06:14:38;95684.34;;;4.79;100.00
57606;BME280;43430;48.204;11.556;2023-02-23T06:17:03;95688.19;;;4.83;100.00
57606;BME280;43430;48.204;11.556;2023-02-23T06:19:29;95693.63;;;4.88;100.00
57606;BME280;43430;48.204;11.556;2023-02-23T06:21:55;95692.66;;;4.89;100.00
57606;BME280;43430;48.204;11.556;2023-02-23T06:24:21;95691.22;;;4.86;100.00
57606;BME280;43430;48.204;11.556;2023-02-23T06:26:48;95692.47;;;4.97;100.00
57606;BME280;43430;48.204;11.556;2023-02-23T06:29:13;95699.34;;;5.05;100.00
57606;BME280;43430;48.204;11.556;2023-02-23T06:31:39;95705.03;;;5.15;100.00
57606;BME280;43430;48.204;11.556;2023-02-23T06:34:05;95713.69;;;5.22;100.00
57606;BME280;43430;48.204;11.556;2023-02-23T06:36:30;95716.75;;;5.32;100.00
57606;BME280;43430;48.204;11.556;2023-02-23T06:38:57;95715.19;;;5.38;100.00
57606;BME280;43430;48.204;11.556;2023-02-23T06:41:23;95710.97;;;5.43;100.00
57606;BME280;43430;48.204;11.556;2023-02-23T06:43:49;95711.81;;;5.51;100.00
57606;BME280;43430;48.204;11.556;2023-02-23T06:46:14;95725.31;;;5.54;100.00
57606;BME280;43430;48.204;11.556;2023-02-23T06:48:40;95716.03;;;5.52;100.00
57606;BME280;43430;48.204;11.556;2023-02-23T06:51:05;95709.63;;;5.54;100.00
57606;BME280;43430;48.204;11.556;2023-02-23T06:53:31;95721.28;;;5.58;100.00
57606;BME280;43430;48.204;11.556;2023-02-23T06:55:58;95722.91;;;5.59;100.00
57606;BME280;43430;48.204;11.556;2023-02-23T06:58:23;95721.28;;;5.58;100.00
57606;BME280;43430;48.204;11.556;2023-02-23T07:00:48;95722.69;;;5.61;100.00
57606;BME280;43430;48.204;11.556;2023-02-23T07:03:14;95724.75;;;5.72;100.00
57606;BME280;43430;48.204;11.556;2023-02-23T07:05:39;95728.59;;;5.83;100.00
57606;BME280;43430;48.204;11.556;2023-02-23T07:08:05;95726.59;;;5.91;100.00
57606;BME280;43430;48.204;11.556;2023-02-23T07:10:32;95735.50;;;5.97;100.00
57606;BME280;43430;48.204;11.556;2023-02-23T07:12:57;95728.06;;;6.01;100.00
57606;BME280;43430;48.204;11.556;2023-02-23T07:15:23;95734.72;;;6.03;100.00
57606;BME280;43430;48.204;11.556;2023-02-23T07:17:48;95735.53;;;6.04;100.00
57606;BME280;43430;48.204;11.556;2023-02-23T07:20:17;95732.13;;;6.10;100.00
57606;BME280;43430;48.204;11.556;2023-02-23T07:22:42;95735.53;;;6.17;100.00
57606;BME280;43430;48.204;11.556;2023-02-23T07:25:08;95731.53;;;6.28;100.00
57606;BME280;43430;48.204;11.556;2023-02-23T07:27:33;95729.53;;;6.30;100.00
57606;BME280;43430;48.204;11.556;2023-02-23T07:29:59;95725.69;;;6.39;100.00
57606;BME280;43430;48.204;11.556;2023-02-23T07:32:28;95725.06;;;6.50;100.00
57606;BME280;43430;48.204;11.556;2023-02-23T07:34:53;95723.47;;;6.62;100.00
57606;BME280;43430;48.204;11.556;2023-02-23T07:37:19;95716.00;;;6.66;100.00
57606;BME280;43430;48.204;11.556;2023-02-23T07:39:45;95717.59;;;6.74;100.00
57606;BME280;43430;48.204;11.556;2023-02-23T07:42:11;95714.38;;;6.85;100.00
57606;BME280;43430;48.204;11.556;2023-02-23T07:44:37;95711.31;;;6.95;100.00
57606;BME280;43430;48.204;11.556;2023-02-23T07:47:03;95714.94;;;7.00;100.00
57606;BME280;43430;48.204;11.556;2023-02-23T07:49:31;95714.91;;;7.13;100.00
57606;BME280;43430;48.204;11.556;2023-02-23T07:51:57;95709.25;;;7.10;100.00
57606;BME280;43430;48.204;11.556;2023-02-23T07:54:22;95717.53;;;7.07;100.00
57606;BME280;43430;48.204;11.556;2023-02-23T07:56:49;95709.25;;;7.17;100.00
57606;BME280;43430;48.204;11.556;2023-02-23T07:59:15;95711.06;;;7.23;100.00
57606;BME280;43430;48.204;11.556;2023-02-23T08:01:40;95715.25;;;7.30;100.00
57606;BME280;43430;48.204;11.556;2023-02-23T08:04:06;95718.84;;;7.36;100.00
57606;BME280;43430;48.204;11.556;2023-02-23T08:06:31;95720.47;;;7.37;100.00
57606;BME280;43430;48.204;11.556;2023-02-23T08:09:01;95718.84;;;7.36;100.00
57606;BME280;43430;48.204;11.556;2023-02-23T08:11:27;95718.41;;;7.46;100.00
57606;BME280;43430;48.204;11.556;2023-02-23T08:13:54;95716.38;;;7.54;100.00
57606;BME280;43430;48.204;11.556;2023-02-23T08:16:25;95720.19;;;7.58;100.00
57606;BME280;43430;48.204;11.556;2023-02-23T08:18:51;95720.31;;;7.70;100.00
57606;BME280;43430;48.204;11.556;2023-02-23T08:21:16;95718.09;;;7.67;100.00
57606;BME280;43430;48.204;11.556;2023-02-23T08:23:42;95725.94;;;7.74;100.00
57606;BME280;43430;48.204;11.556;2023-02-23T08:26:07;95719.69;;;7.81;100.00
57606;BME280;43430;48.204;11.556;2023-02-23T08:28:33;95723.91;;;7.82;100.00
57606;BME280;43430;48.204;11.556;2023-02-23T08:30:58;95710.97;;;7.81;100.00
57606;BME280;43430;48.204;11.556;2023-02-23T08:33:24;95714.81;;;7.85;100.00
57606;BME280;43430;48.204;11.556;2023-02-23T08:35:49;95719.44;;;7.83;100.00
57606;BME280;43430;48.204;11.556;2023-02-23T08:38:14;95712.94;;;7.92;100.00
57606;BME280;43430;48.204;11.556;2023-02-23T08:40:40;95711.28;;;7.98;100.00
57606;BME280;43430;48.204;11.556;2023-02-23T08:43:06;95718.97;;;7.99;100.00
57606;BME280;43430;48.204;11.556;2023-02-23T08:45:31;95717.50;;;8.03;100.00
57606;BME280;43430;48.204;11.556;2023-02-23T08:47:56;95714.38;;;8.20;100.00
57606;BME280;43430;48.204;11.556;2023-02-23T08:50:22;95708.59;;;8.36;100.00
57606;BME280;43430;48.204;11.556;2023-02-23T08:52:48;95710.34;;;8.17;100.00
57606;BME280;43430;48.204;11.556;2023-02-23T08:55:13;95710.22;;;8.37;100.00
57606;BME280;43430;48.204;11.556;2023-02-23T08:57:40;95704.75;;;8.39;100.00
57606;BME280;43430;48.204;11.556;2023-02-23T09:00:07;95708.59;;;8.36;100.00
57606;BME280;43430;48.204;11.556;2023-02-23T09:02:39;95706.16;;;8.41;100.00
57606;BME280;43430;48.204;11.556;2023-02-23T09:05:06;95703.56;;;8.60;100.00
57606;BME280;43430;48.204;11.556;2023-02-23T09:07:32;95706.06;;;8.54;100.00
57606;BME280;43430;48.204;11.556;2023-02-23T09:09:58;95698.06;;;8.43;100.00
57606;BME280;43430;48.204;11.556;2023-02-23T09:12:23;95706.63;;;8.56;100.00
57606;BME280;43430;48.204;11.556;2023-02-23T09:14:49;95704.50;;;8.72;100.00
57606;BME280;43430;48.204;11.556;2023-02-23T09:17:16;95699.53;;;8.82;100.00
57606;BME280;43430;48.204;11.556;2023-02-23T09:19:42;95699.41;;;8.95;100.00
57606;BME280;43430;48.204;11.556;2023-02-23T09:22:07;95693.56;;;8.93;100.00
57606;BME280;43430;48.204;11.556;2023-02-23T09:24:33;95701.16;;;9.01;100.00
57606;BME280;43430;48.204;11.556;2023-02-23T09:26:59;95706.28;;;8.96;100.00
57606;BME280;43430;48.204;11.556;2023-02-23T09:29:24;95708.91;;;8.96;100.00
57606;BME280;43430;48.204;11.556;2023-02-23T09:31:49;95708.41;;;9.06;100.00
57606;BME280;43430;48.204;11.556;2023-02-23T09:34:17;95707.19;;;9.09;100.00
57606;BME280;43430;48.204;11.556;2023-02-23T09:36:43;95708.56;;;9.30;100.00
57606;BME280;43430;48.204;11.556;2023-02-23T09:39:08;95699.72;;;9.06;100.00
57606;BME280;43430;48.204;11.556;2023-02-23T09:42:11;95706.22;;;9.03;100.00
57606;BME280;43430;48.204;11.556;2023-02-23T09:50:24;95715.47;;;8.87;100.00
57606;BME280;43430;48.204;11.556;2023-02-23T09:53:03;95712.88;;;8.80;100.00
57606;BME280;43430;48.204;11.556;2023-02-23T09:55:31;95716.19;;;8.94;100.00
57606;BME280;43430;48.204;11.556;2023-02-23T09:58:16;95721.50;;;9.13;100.00
57606;BME280;43430;48.204;11.556;2023-02-23T10:00:45;95720.63;;;9.19;100.00
57606;BME280;43430;48.204;11.556;2023-02-23T10:03:29;95716.38;;;9.18;100.00
57606;BME280;43430;48.204;11.556;2023-02-23T10:05:59;95716.81;;;9.33;100.00
57606;BME280;43430;48.204;11.556;2023-02-23T10:17:10;95707.00;;;9.59;100.00
57606;BME280;43430;48.204;11.556;2023-02-23T10:20:12;95709.06;;;9.38;100.00
57606;BME280;43430;48.204;11.556;2023-02-23T10:22:43;95711.69;;;9.38;100.00
57606;BME280;43430;48.204;11.556;2023-02-23T10:25:24;95710.09;;;9.37;100.00
57606;BME280;43430;48.204;11.556;2023-02-23T10:27:51;95708.03;;;9.39;100.00
57606;BME280;43430;48.204;11.556;2023-02-23T10:30:20;95706.94;;;9.47;100.00
57606;BME280;43430;48.204;11.556;2023-02-23T10:33:11;95696.13;;;9.67;100.00
57606;BME280;43430;48.204;11.556;2023-02-23T10:35:38;95701.16;;;9.57;100.00
57606;BME280;43430;48.204;11.556;2023-02-23T10:38:04;95702.47;;;9.47;100.00
57606;BME280;43430;48.204;11.556;2023-02-23T10:40:32;95701.00;;;9.51;100.00
57606;BME280;43430;48.204;11.556;2023-02-23T10:42:59;95697.34;;;9.52;100.00
57606;BME280;43430;48.204;11.556;2023-02-23T10:45:27;95692.63;;;9.43;100.00
57606;BME280;43430;48.204;11.556;2023-02-23T10:47:57;95695.31;;;9.55;100.00
57606;BME280;43430;48.204;11.556;2023-02-23T10:50:25;95707.59;;;9.42;100.00
57606;BME280;43430;48.204;11.556;2023-02-23T10:55:42;95696.78;;;9.50;100.00
57606;BME280;43430;48.204;11.556;2023-02-23T10:58:16;95696.41;;;9.47;100.00
57606;BME280;43430;48.204;11.556;2023-02-23T11:00:52;95698.06;;;9.60;100.00
57606;BME280;43430;48.204;11.556;2023-02-23T11:03:28;95695.94;;;9.68;100.00
57606;BME280;43430;48.204;11.556;2023-02-23T11:05:54;95699.28;;;9.75;100.00
57606;BME280;43430;48.204;11.556;2023-02-23T11:08:40;95690.78;;;9.73;100.00
57606;BME280;43430;48.204;11.556;2023-02-23T11:13:38;95678.56;;;9.79;100.00
57606;BME280;43430;48.204;11.556;2023-02-23T11:16:10;95686.38;;;9.86;100.00
57606;BME280;43430;48.204;11.556;2023-02-23T11:18:43;95687.06;;;9.81;100.00
57606;BME280;43430;48.204;11.556;2023-02-23T11:21:20;95682.28;;;9.90;100.00
57606;BME280;43430;48.204;11.556;2023-02-23T11:23:49;95678.06;;;10.01;100.00
57606;BME280;43430;48.204;11.556;2023-02-23T11:26:39;95673.94;;;9.93;100.00
57606;BME280;43430;48.204;11.556;2023-02-23T11:29:17;95667.78;;;10.11;100.00
57606;BME280;43430;48.204;11.556;2023-02-23T11:31:53;95662.31;;;10.12;100.00
57606;BME280;43430;48.204;11.556;2023-02-23T11:34:41;95656.47;;;10.22;100.00
57606;BME280;43430;48.204;11.556;2023-02-23T11:39:58;95651.34;;;10.27;100.00
57606;BME280;43430;48.204;11.556;2023-02-23T11:42:29;95649.50;;;10.28;100.00
57606;BME280;43430;48.204;11.556;2023-02-23T11:45:17;95645.47;;;10.25;100.00
57606;BME280;43430;48.204;11.556;2023-02-23T11:47:46;95644.50;;;10.61;100.00
57606;BME280;43430;48.204;11.556;2023-02-23T11:53:02;95642.19;;;10.41;100.00
57606;BME280;43430;48.204;11.556;2023-02-23T11:55:30;95641.50;;;10.34;100.00
57606;BME280;43430;48.204;11.556;2023-02-23T11:58:19;95641.84;;;10.38;100.00
57606;BME280;43430;48.204;11.556;2023-02-23T12:01:05;95639.00;;;10.39;100.00
57606;BME280;43430;48.204;11.556;2023-02-23T12:03:46;95630.84;;;10.41;100.00
57606;BME280;43430;48.204;11.556;2023-02-23T12:06:30;95621.66;;;10.32;100.00
57606;BME280;43430;48.204;11.556;2023-02-23T12:09:16;95621.91;;;10.54;100.00
57606;BME280;43430;48.204;11.556;2023-02-23T12:11:47;95618.38;;;10.60;100.00
57606;BME280;43430;48.204;11.556;2023-02-23T12:14:30;95620.19;;;10.48;100.00
57606;BME280;43430;48.204;11.556;2023-02-23T12:17:03;95622.25;;;10.45;100.00
57606;BME280;43430;48.204;11.556;2023-02-23T12:19:43;95614.78;;;10.66;100.00
57606;BME280;43430;48.204;11.556;2023-02-23T12:22:15;95610.47;;;10.60;100.00
57606;BME280;43430;48.204;11.556;2023-02-23T12:27:15;95604.25;;;10.66;100.00
57606;BME280;43430;48.204;11.556;2023-02-23T12:32:14;95597.22;;;10.83;100.00
57606;BME280;43430;48.204;11.556;2023-02-23T12:34:53;95601.50;;;10.73;100.00
57606;BME280;43430;48.204;11.556;2023-02-23T12:37:29;95597.97;;;10.67;100.00
57606;BME280;43430;48.204;11.556;2023-02-23T12:42:43;95597.50;;;10.47;100.00
57606;BME280;43430;48.204;11.556;2023-02-23T12:45:20;95606.56;;;10.27;100.00
57606;BME280;43430;48.204;11.556;2023-02-23T12:50:39;95594.28;;;10.44;100.00
57606;BME280;43430;48.204;11.556;2023-02-23T13:01:30;95589.16;;;10.50;100.00
57606;BME280;43430;48.204;11.556;2023-02-23T13:06:58;95586.75;;;10.60;100.00
57606;BME280;43430;48.204;11.556;2023-02-23T13:10:48;95574.22;;;10.55;100.00
57606;BME280;43430;48.204;11.556;2023-02-23T13:15:34;95591.53;;;10.51;100.00
57606;BME280;43430;48.204;11.556;2023-02-23T13:18:31;95588.09;;;10.39;100.00
57606;BME280;43430;48.204;11.556;2023-02-23T13:21:14;95590.97;;;10.61;100.00
57606;BME280;43430;48.204;11.556;2023-02-23T13:24:04;95584.00;;;10.43;100.00
57606;BME280;43430;48.204;11.556;2023-02-23T13:26:54;95583.53;;;10.46;100.00
57606;BME280;43430;48.204;11.556;2023-02-23T13:29:36;95589.03;;;10.44;100.00
57606;BME280;43430;48.204;11.556;2023-02-23T13:32:07;95582.59;;;10.52;100.00
57606;BME280;43430;48.204;11.556;2023-02-23T13:34:40;95577.00;;;10.37;100.00
57606;BME280;43430;48.204;11.556;2023-02-23T13:37:07;95583.28;;;10.48;100.00
57606;BME280;43430;48.204;11.556;2023-02-23T13:42:24;95569.25;;;10.82;100.00
57606;BME280;43430;48.204;11.556;2023-02-23T13:47:48;95558.25;;;10.85;100.00
57606;BME280;43430;48.204;11.556;2023-02-23T13:50:34;95562.47;;;10.98;100.00
57606;BME280;43430;48.204;11.556;2023-02-23T13:53:05;95559.78;;;11.10;100.00
57606;BME280;43430;48.204;11.556;2023-02-23T13:55:43;95557.34;;;11.20;100.00
57606;BME280;43430;48.204;11.556;2023-02-23T13:58:28;95558.88;;;11.04;100.00
57606;BME280;43430;48.204;11.556;2023-02-23T14:04:03;95555.22;;;10.93;100.00
57606;BME280;43430;48.204;11.556;2023-02-23T14:06:33;95561.47;;;10.87;100.00
57606;BME280;43430;48.204;11.556;2023-02-23T14:09:08;95549.81;;;11.00;100.00
57606;BME280;43430;48.204;11.556;2023-02-23T14:11:50;95550.16;;;11.04;100.00
57606;BME280;43430;48.204;11.556;2023-02-23T14:20:04;95549.13;;;11.33;100.00
57606;BME280;43430;48.204;11.556;2023-02-23T14:22:33;95547.91;;;10.96;100.00
57606;BME280;43430;48.204;11.556;2023-02-23T14:28:13;95561.16;;;11.01;100.00
57606;BME280;43430;48.204;11.556;2023-02-23T14:30:49;95538.38;;;11.23;100.00
57606;BME280;43430;48.204;11.556;2023-02-23T14:41:23;95550.03;;;10.58;100.00
57606;BME280;43430;48.204;11.556;2023-02-23T14:43:53;95553.72;;;10.45;100.00
57606;BME280;43430;48.204;11.556;2023-02-23T14:46:20;95548.00;;;10.60;100.00
57606;BME280;43430;48.204;11.556;2023-02-23T14:49:05;95542.78;;;10.77;100.00
57606;BME280;43430;48.204;11.556;2023-02-23T14:51:44;95554.59;;;10.63;100.00
57606;BME280;43430;48.204;11.556;2023-02-23T14:54:33;95555.09;;;10.60;100.00
57606;BME280;43430;48.204;11.556;2023-02-23T14:57:15;95555.28;;;10.70;100.00